Time;durP1;ratioP1;P1;durP2;ratioP2;P2;SDS_P1;SDS_P2;PMS_P1;PMS_P2;Temp;Humidity;BMP_temperature;BMP_pressure;BME280_temperature;BME280_humidity;BME280_pressure;Samples;Min_cycle;Max_cycle;Signal;HPM_P1;HPM_P2
2022/10/08 00:00:42;;;;;;;20.15;10.82;;;;;;;;;;4971885;28;20027;-54
2022/10/08 00:03:08;;;;;;;16.42;11.35;;;;;;;;;;4971841;28;20035;-55
2022/10/08 00:05:35;;;;;;;22.27;12.73;;;;;;;;;;4972072;28;20045;-54
2022/10/08 00:08:01;;;;;;;20.95;13.13;;;;;;;;;;4971845;28;20023;-55
2022/10/08 00:10:27;;;;;;;23.75;13.60;;;;;;;;;;4972166;28;20094;-55
2022/10/08 00:12:53;;;;;;;22.98;13.18;;;;;;;;;;4972069;28;20038;-55
2022/10/08 00:15:19;;;;;;;21.83;12.57;;;;;;;;;;4971884;28;20102;-56
2022/10/08 00:17:45;;;;;;;22.48;12.57;;;;;;;;;;4971559;28;20126;-55
2022/10/08 00:20:11;;;;;;;19.40;11.60;;;;;;;;;;4972022;28;20102;-54
2022/10/08 00:22:37;;;;;;;17.65;11.15;;;;;;;;;;4972065;28;20530;-55
2022/10/08 00:25:03;;;;;;;17.83;10.40;;;;;;;;;;4971905;28;20106;-59
2022/10/08 00:27:29;;;;;;;19.77;11.27;;;;;;;;;;4972389;28;20061;-54
2022/10/08 00:29:55;;;;;;;21.13;10.95;;;;;;;;;;4972336;28;20026;-54
2022/10/08 00:32:21;;;;;;;16.38;10.35;;;;;;;;;;4971902;28;20050;-54
2022/10/08 00:34:47;;;;;;;19.25;10.50;;;;;;;;;;4972045;28;20035;-60
2022/10/08 00:37:14;;;;;;;17.73;10.05;;;;;;;;;;4972110;28;20073;-55
2022/10/08 00:39:40;;;;;;;13.43;8.80;;;;;;;;;;4971988;28;20045;-55
2022/10/08 00:42:07;;;;;;;15.20;9.55;;;;;;;;;;4972356;28;20409;-55
2022/10/08 00:44:52;;;;;;;15.45;9.30;;;;;;;;;;4971804;28;20569;-55
2022/10/08 00:47:21;;;;;;;14.55;8.52;;;;;;;;;;4971905;28;20023;-55
2022/10/08 00:49:48;;;;;;;16.17;9.13;;;;;;;;;;4971853;28;20113;-57
2022/10/08 00:52:14;;;;;;;14.10;8.35;;;;;;;;;;4971591;28;20035;-55
2022/10/08 00:54:40;;;;;;;16.00;8.70;;;;;;;;;;4974335;28;20054;-55
2022/10/08 00:57:07;;;;;;;12.23;8.00;;;;;;;;;;4975597;28;20478;-55
2022/10/08 00:59:33;;;;;;;16.60;8.98;;;;;;;;;;4975907;28;20114;-68
2022/10/08 01:02:00;;;;;;;16.10;8.98;;;;;;;;;;4958313;28;20415;-56
2022/10/08 01:04:26;;;;;;;13.88;8.70;;;;;;;;;;4975317;28;20027;-58
2022/10/08 01:07:11;;;;;;;13.85;7.53;;;;;;;;;;4975239;28;20030;-55
2022/10/08 01:09:41;;;;;;;11.88;7.82;;;;;;;;;;4975427;28;20497;-55
2022/10/08 01:12:07;;;;;;;14.20;6.90;;;;;;;;;;4975183;28;20045;-55
2022/10/08 01:14:33;;;;;;;10.98;7.35;;;;;;;;;;4975289;28;20109;-56
2022/10/08 01:17:25;;;;;;;12.23;7.00;;;;;;;;;;4975194;28;20114;-55
2022/10/08 01:20:06;;;;;;;15.55;7.00;;;;;;;;;;4970702;28;20395;-55
2022/10/08 01:22:39;;;;;;;12.88;7.10;;;;;;;;;;4975231;28;20033;-56
2022/10/08 01:27:56;;;;;;;10.88;7.22;;;;;;;;;;4975190;28;20537;-55
2022/10/08 01:30:23;;;;;;;12.55;6.75;;;;;;;;;;4975073;28;20023;-55
2022/10/08 01:32:51;;;;;;;11.02;6.50;;;;;;;;;;4975211;28;20110;-55
2022/10/08 01:35:20;;;;;;;9.68;6.80;;;;;;;;;;4974925;28;20026;-55
2022/10/08 01:37:47;;;;;;;11.10;5.82;;;;;;;;;;4974950;28;20042;-54
2022/10/08 01:40:20;;;;;;;16.38;7.28;;;;;;;;;;4975076;28;20031;-55
2022/10/08 01:42:48;;;;;;;13.30;6.85;;;;;;;;;;4974845;28;20030;-55
2022/10/08 01:45:17;;;;;;;9.88;6.53;;;;;;;;;;4974487;28;20570;-56
2022/10/08 01:47:45;;;;;;;11.82;7.10;;;;;;;;;;4974687;28;20085;-55
2022/10/08 01:50:14;;;;;;;10.40;6.20;;;;;;;;;;4974916;28;20022;-54
2022/10/08 01:52:42;;;;;;;9.77;5.90;;;;;;;;;;4974580;28;20138;-54
2022/10/08 01:55:13;;;;;;;10.70;6.07;;;;;;;;;;4974740;28;20394;-54
2022/10/08 01:57:39;;;;;;;12.27;6.32;;;;;;;;;;4974364;28;20414;-55
2022/10/08 02:00:08;;;;;;;13.07;6.20;;;;;;;;;;4974607;28;20040;-65
2022/10/08 02:02:34;;;;;;;9.80;5.63;;;;;;;;;;4975653;28;20027;-55
2022/10/08 02:05:00;;;;;;;11.23;5.88;;;;;;;;;;4974849;28;20077;-54
2022/10/08 02:07:33;;;;;;;9.52;5.22;;;;;;;;;;4973953;28;20479;-55
2022/10/08 02:10:07;;;;;;;9.85;5.57;;;;;;;;;;4974297;28;20438;-55
2022/10/08 02:12:34;;;;;;;11.18;5.53;;;;;;;;;;4974095;28;21034;-64
2022/10/08 02:15:01;;;;;;;10.68;5.47;;;;;;;;;;4973787;28;20062;-54
2022/10/08 02:17:45;;;;;;;11.18;5.45;;;;;;;;;;4973445;28;20038;-54
2022/10/08 02:20:34;;;;;;;9.52;5.38;;;;;;;;;;4973346;28;20022;-55
2022/10/08 02:23:23;;;;;;;8.30;5.10;;;;;;;;;;4876301;29;20096;-55
2022/10/08 02:25:52;;;;;;;8.93;5.38;;;;;;;;;;4876217;29;20112;-55
2022/10/08 02:28:29;;;;;;;10.80;4.97;;;;;;;;;;4876236;29;20041;-54
2022/10/08 02:30:57;;;;;;;8.95;5.38;;;;;;;;;;4876496;29;20029;-54
2022/10/08 02:33:49;;;;;;;11.15;4.88;;;;;;;;;;4876083;29;20083;-54
2022/10/08 02:36:17;;;;;;;9.23;5.25;;;;;;;;;;4873954;29;20052;-54
2022/10/08 02:38:54;;;;;;;7.78;4.80;;;;;;;;;;4876684;29;20460;-53
2022/10/08 02:41:21;;;;;;;9.68;5.13;;;;;;;;;;4876537;29;20045;-55
2022/10/08 02:43:48;;;;;;;8.85;4.70;;;;;;;;;;4876191;29;20052;-54
2022/10/08 02:46:18;;;;;;;8.40;5.28;;;;;;;;;;4876619;29;20045;-54
2022/10/08 02:49:03;;;;;;;10.15;4.88;;;;;;;;;;4876360;29;20066;-54
2022/10/08 02:51:30;;;;;;;9.68;5.32;;;;;;;;;;4876434;29;20036;-54
2022/10/08 02:53:57;;;;;;;8.63;5.10;;;;;;;;;;4876289;29;20040;-55
2022/10/08 02:56:35;;;;;;;7.90;4.60;;;;;;;;;;4876423;29;20498;-66
2022/10/08 02:59:02;;;;;;;9.32;4.93;;;;;;;;;;4884753;28;20041;-57
2022/10/08 03:01:31;;;;;;;8.77;4.68;;;;;;;;;;4973725;28;20070;-55
2022/10/08 03:04:03;;;;;;;11.32;5.05;;;;;;;;;;4972912;28;20035;-55
2022/10/08 03:06:30;;;;;;;10.02;5.30;;;;;;;;;;4973582;28;20026;-56
2022/10/08 03:08:58;;;;;;;7.82;5.07;;;;;;;;;;4973276;28;20113;-55
2022/10/08 03:11:24;;;;;;;8.18;5.10;;;;;;;;;;4973651;28;20050;-55
2022/10/08 03:13:51;;;;;;;11.10;5.00;;;;;;;;;;4973334;28;20034;-54
2022/10/08 03:16:19;;;;;;;9.13;5.13;;;;;;;;;;4972946;28;20026;-54
2022/10/08 03:18:46;;;;;;;10.18;5.40;;;;;;;;;;4973172;28;20041;-56
2022/10/08 03:21:14;;;;;;;13.02;5.25;;;;;;;;;;4972839;28;20037;-55
2022/10/08 03:23:40;;;;;;;14.45;4.80;;;;;;;;;;4973100;28;20043;-55
2022/10/08 03:26:06;;;;;;;8.50;4.82;;;;;;;;;;4973067;28;20058;-55
2022/10/08 03:28:32;;;;;;;8.52;5.18;;;;;;;;;;4972990;28;20030;-56
2022/10/08 03:30:58;;;;;;;9.18;5.28;;;;;;;;;;4972709;28;20035;-54
2022/10/08 03:33:24;;;;;;;9.65;5.07;;;;;;;;;;4972788;28;20035;-55
2022/10/08 03:35:50;;;;;;;11.85;5.68;;;;;;;;;;4972403;28;20054;-55
2022/10/08 03:38:16;;;;;;;10.02;5.03;;;;;;;;;;4972518;28;20078;-69
2022/10/08 03:40:43;;;;;;;9.48;4.75;;;;;;;;;;4972791;28;20497;-54
2022/10/08 03:43:09;;;;;;;12.13;5.53;;;;;;;;;;4972549;28;20078;-54
2022/10/08 03:45:35;;;;;;;8.45;5.00;;;;;;;;;;4972317;28;20034;-55
2022/10/08 03:48:01;;;;;;;12.60;5.53;;;;;;;;;;4972544;28;20042;-68
2022/10/08 03:50:27;;;;;;;10.57;5.68;;;;;;;;;;4972462;28;20022;-54
2022/10/08 03:52:53;;;;;;;9.10;5.68;;;;;;;;;;4972306;28;20035;-54
2022/10/08 03:55:19;;;;;;;9.27;5.72;;;;;;;;;;4972470;28;20098;-54
2022/10/08 03:57:45;;;;;;;10.80;6.78;;;;;;;;;;4972375;28;20066;-54
2022/10/08 04:00:11;;;;;;;8.43;5.65;;;;;;;;;;4972400;28;20399;-54
2022/10/08 04:02:37;;;;;;;9.07;6.07;;;;;;;;;;4972178;28;20502;-54
2022/10/08 04:05:03;;;;;;;9.35;5.53;;;;;;;;;;4972190;28;20042;-64
2022/10/08 04:07:30;;;;;;;9.85;5.75;;;;;;;;;;4971874;28;20033;-64
2022/10/08 04:09:56;;;;;;;8.93;5.43;;;;;;;;;;4972220;28;20113;-54
2022/10/08 04:12:22;;;;;;;9.32;5.85;;;;;;;;;;4972294;28;20023;-54
2022/10/08 04:14:48;;;;;;;10.20;6.00;;;;;;;;;;4971978;28;20041;-54
2022/10/08 04:17:14;;;;;;;9.30;5.95;;;;;;;;;;4971953;28;20034;-56
2022/10/08 04:19:40;;;;;;;12.18;5.80;;;;;;;;;;4972256;28;20058;-54
2022/10/08 04:22:06;;;;;;;11.15;5.32;;;;;;;;;;4971745;28;20027;-55
2022/10/08 04:24:32;;;;;;;11.45;5.90;;;;;;;;;;4971957;28;20094;-54
2022/10/08 04:26:58;;;;;;;11.18;5.50;;;;;;;;;;4971927;28;20035;-54
2022/10/08 04:29:24;;;;;;;12.80;6.18;;;;;;;;;;4973771;28;20037;-54
2022/10/08 04:31:50;;;;;;;11.85;5.82;;;;;;;;;;4976069;28;20027;-55
2022/10/08 04:34:17;;;;;;;11.95;5.93;;;;;;;;;;4975709;28;20086;-54
2022/10/08 04:36:43;;;;;;;10.95;5.80;;;;;;;;;;4975500;28;20030;-55
2022/10/08 04:39:09;;;;;;;10.40;5.45;;;;;;;;;;4975875;28;20070;-60
2022/10/08 04:41:35;;;;;;;10.27;5.80;;;;;;;;;;4975811;28;20062;-55
2022/10/08 04:44:01;;;;;;;10.20;5.28;;;;;;;;;;4975208;28;20047;-54
2022/10/08 04:46:27;;;;;;;12.60;5.60;;;;;;;;;;4975630;28;20031;-54
2022/10/08 04:48:54;;;;;;;11.30;5.75;;;;;;;;;;4975382;28;20034;-69
2022/10/08 04:51:22;;;;;;;10.00;6.10;;;;;;;;;;4975759;28;20069;-55
2022/10/08 04:53:48;;;;;;;12.93;6.85;;;;;;;;;;4975792;28;20035;-54
2022/10/08 04:56:14;;;;;;;11.02;6.00;;;;;;;;;;4975765;28;20439;-54
2022/10/08 04:58:41;;;;;;;11.00;5.75;;;;;;;;;;4975667;28;20085;-55
2022/10/08 05:01:08;;;;;;;9.25;5.68;;;;;;;;;;4975724;28;20019;-54
2022/10/08 05:03:37;;;;;;;12.18;6.07;;;;;;;;;;4975863;28;20105;-55
2022/10/08 05:06:04;;;;;;;12.63;6.15;;;;;;;;;;4975296;28;20056;-60
2022/10/08 05:08:30;;;;;;;10.30;5.93;;;;;;;;;;4975885;28;20502;-54
2022/10/08 05:10:56;;;;;;;9.90;5.60;;;;;;;;;;4975416;28;20027;-61
2022/10/08 05:13:22;;;;;;;11.57;5.95;;;;;;;;;;4975429;28;20035;-55
2022/10/08 05:15:48;;;;;;;11.30;5.43;;;;;;;;;;4975475;28;20035;-60
2022/10/08 05:18:14;;;;;;;8.80;5.70;;;;;;;;;;4975337;28;20098;-54
2022/10/08 05:20:40;;;;;;;9.40;5.40;;;;;;;;;;4975342;28;20027;-54
2022/10/08 05:23:06;;;;;;;11.10;5.60;;;;;;;;;;4975145;28;20089;-54
2022/10/08 05:25:33;;;;;;;9.98;5.70;;;;;;;;;;4974690;28;20042;-55
2022/10/08 05:28:00;;;;;;;10.02;5.70;;;;;;;;;;4975125;28;20038;-54
2022/10/08 05:30:26;;;;;;;10.52;5.55;;;;;;;;;;4975129;28;20106;-55
2022/10/08 05:32:52;;;;;;;11.23;5.88;;;;;;;;;;4975246;28;20038;-54
2022/10/08 05:35:18;;;;;;;12.80;4.97;;;;;;;;;;4975105;28;20498;-66
2022/10/08 05:37:44;;;;;;;10.10;5.28;;;;;;;;;;4974808;28;20101;-62
2022/10/08 05:40:10;;;;;;;7.85;4.53;;;;;;;;;;4974815;28;20026;-54
2022/10/08 05:42:36;;;;;;;8.15;4.88;;;;;;;;;;4974915;28;20027;-58
2022/10/08 05:45:03;;;;;;;9.30;5.22;;;;;;;;;;4974770;28;20049;-54
2022/10/08 05:47:29;;;;;;;10.70;4.90;;;;;;;;;;4974790;28;20479;-55
2022/10/08 05:49:55;;;;;;;7.93;4.75;;;;;;;;;;4974670;28;20394;-55
2022/10/08 05:52:21;;;;;;;9.63;4.88;;;;;;;;;;4974620;28;20026;-54
2022/10/08 05:54:47;;;;;;;7.53;4.47;;;;;;;;;;4974210;28;20030;-61
2022/10/08 05:57:13;;;;;;;8.32;4.40;;;;;;;;;;4974547;28;20030;-54
2022/10/08 05:59:39;;;;;;;7.03;4.20;;;;;;;;;;4974129;28;20042;-54
2022/10/08 06:02:06;;;;;;;12.07;4.85;;;;;;;;;;4974276;28;20031;-54
2022/10/08 06:04:32;;;;;;;10.02;4.60;;;;;;;;;;4974027;28;20055;-59
2022/10/08 06:06:58;;;;;;;7.43;4.70;;;;;;;;;;4973936;28;20050;-55
2022/10/08 06:09:24;;;;;;;10.80;4.80;;;;;;;;;;4974333;28;20046;-55
2022/10/08 06:11:50;;;;;;;8.93;4.88;;;;;;;;;;4973607;28;20069;-56
2022/10/08 06:14:16;;;;;;;8.32;4.45;;;;;;;;;;4973728;28;20054;-55
2022/10/08 06:16:42;;;;;;;7.53;4.53;;;;;;;;;;4974179;28;20023;-56
2022/10/08 06:19:09;;;;;;;12.95;4.80;;;;;;;;;;4973636;28;20038;-55
2022/10/08 06:21:35;;;;;;;9.10;4.82;;;;;;;;;;4973963;28;20081;-56
2022/10/08 06:24:04;;;;;;;9.25;5.15;;;;;;;;;;4973732;28;20030;-55
2022/10/08 06:26:31;;;;;;;8.98;4.38;;;;;;;;;;4973822;28;20019;-59
2022/10/08 06:28:57;;;;;;;8.73;4.80;;;;;;;;;;4973467;28;20030;-56
2022/10/08 06:31:23;;;;;;;6.32;4.35;;;;;;;;;;4956468;28;20084;-56
2022/10/08 06:33:49;;;;;;;8.77;4.15;;;;;;;;;;4973855;28;20031;-66
2022/10/08 06:36:20;;;;;;;7.20;4.28;;;;;;;;;;4973030;28;20023;-56
2022/10/08 06:38:49;;;;;;;7.60;4.15;;;;;;;;;;4973576;28;20035;-55
2022/10/08 06:41:15;;;;;;;10.80;4.53;;;;;;;;;;4973550;28;20023;-55
2022/10/08 06:43:41;;;;;;;8.80;4.70;;;;;;;;;;4973022;28;20406;-55
2022/10/08 06:46:08;;;;;;;8.15;4.35;;;;;;;;;;4973624;28;20495;-56
2022/10/08 06:48:34;;;;;;;6.90;4.30;;;;;;;;;;4973737;28;20035;-56
2022/10/08 06:51:01;;;;;;;8.63;4.40;;;;;;;;;;4973188;28;20023;-55
2022/10/08 06:53:27;;;;;;;9.18;3.83;;;;;;;;;;4973156;28;20031;-55
2022/10/08 06:56:01;;;;;;;12.25;4.03;;;;;;;;;;4973954;28;20038;-56
2022/10/08 06:58:27;;;;;;;8.75;4.00;;;;;;;;;;4973721;28;20376;-55
2022/10/08 07:01:07;;;;;;;10.82;4.30;;;;;;;;;;4973441;28;20026;-57
2022/10/08 07:03:33;;;;;;;10.45;4.38;;;;;;;;;;4986375;28;20023;-56
2022/10/08 07:06:03;;;;;;;6.65;3.85;;;;;;;;;;4992524;28;20034;-56
2022/10/08 07:08:29;;;;;;;9.38;4.68;;;;;;;;;;4989178;28;20022;-56
2022/10/08 07:11:02;;;;;;;7.25;4.15;;;;;;;;;;4992299;28;20140;-72
2022/10/08 07:13:28;;;;;;;10.95;3.85;;;;;;;;;;4992466;28;20041;-56
2022/10/08 07:16:00;;;;;;;6.57;4.00;;;;;;;;;;4992397;28;20046;-56
2022/10/08 07:18:26;;;;;;;11.25;4.90;;;;;;;;;;4992196;28;20034;-56
2022/10/08 07:20:55;;;;;;;11.70;4.20;;;;;;;;;;4991981;28;20026;-71
2022/10/08 07:23:21;;;;;;;11.77;5.10;;;;;;;;;;4991710;28;20058;-67
2022/10/08 07:26:00;;;;;;;10.80;4.78;;;;;;;;;;4992231;28;20058;-57
2022/10/08 07:28:27;;;;;;;7.25;4.25;;;;;;;;;;4991685;28;20042;-55
2022/10/08 07:30:53;;;;;;;6.22;3.97;;;;;;;;;;4987836;28;20022;-56
2022/10/08 07:33:19;;;;;;;8.30;4.60;;;;;;;;;;4980785;28;20097;-56
2022/10/08 07:35:45;;;;;;;7.43;4.47;;;;;;;;;;4981635;28;20023;-57
2022/10/08 07:38:11;;;;;;;13.77;4.50;;;;;;;;;;4976712;28;20034;-58
2022/10/08 07:40:38;;;;;;;7.65;4.68;;;;;;;;;;4978652;28;20519;-55
2022/10/08 07:43:05;;;;;;;11.38;4.50;;;;;;;;;;4980262;28;20513;-59
2022/10/08 07:45:31;;;;;;;7.78;4.43;;;;;;;;;;4980030;28;20066;-57
2022/10/08 07:47:58;;;;;;;10.85;4.72;;;;;;;;;;4980821;28;20027;-56
2022/10/08 07:50:24;;;;;;;8.23;4.70;;;;;;;;;;4988659;28;20027;-57
2022/10/08 07:52:50;;;;;;;10.90;4.80;;;;;;;;;;4991777;28;20455;-65
2022/10/08 07:55:16;;;;;;;9.23;4.97;;;;;;;;;;4977462;28;20058;-55
2022/10/08 07:57:42;;;;;;;14.20;4.50;;;;;;;;;;4986303;28;20549;-55
2022/10/08 08:00:08;;;;;;;7.75;4.25;;;;;;;;;;4991115;28;20030;-55
2022/10/08 08:02:34;;;;;;;11.18;4.60;;;;;;;;;;4991468;28;20026;-55
2022/10/08 08:05:01;;;;;;;9.68;4.35;;;;;;;;;;4991609;28;20030;-60
2022/10/08 08:07:28;;;;;;;7.57;4.43;;;;;;;;;;4990688;28;20058;-55
2022/10/08 08:09:54;;;;;;;6.93;4.35;;;;;;;;;;4991506;28;20026;-56
2022/10/08 08:12:20;;;;;;;8.07;4.35;;;;;;;;;;4990714;28;20077;-65
2022/10/08 08:14:46;;;;;;;7.63;4.13;;;;;;;;;;4990924;28;20426;-56
2022/10/08 08:17:12;;;;;;;9.27;4.43;;;;;;;;;;4990523;28;20430;-57
2022/10/08 08:19:39;;;;;;;7.47;3.85;;;;;;;;;;4991044;28;20486;-57
2022/10/08 08:22:06;;;;;;;8.55;4.30;;;;;;;;;;4990849;28;20025;-58
2022/10/08 08:24:32;;;;;;;6.88;4.47;;;;;;;;;;4991292;28;20056;-57
2022/10/08 08:26:58;;;;;;;7.50;4.32;;;;;;;;;;4990989;28;20073;-57
2022/10/08 08:29:24;;;;;;;10.80;4.65;;;;;;;;;;4991143;28;20110;-60
2022/10/08 08:31:50;;;;;;;7.68;4.05;;;;;;;;;;4990791;28;20065;-77
2022/10/08 08:34:20;;;;;;;6.93;3.88;;;;;;;;;;4990275;28;20034;-56
2022/10/08 08:36:48;;;;;;;10.70;4.80;;;;;;;;;;4990641;28;20041;-56
2022/10/08 08:39:18;;;;;;;6.78;4.75;;;;;;;;;;4990958;28;20057;-55
2022/10/08 08:41:47;;;;;;;7.22;3.95;;;;;;;;;;4990851;28;20031;-55
2022/10/08 08:44:17;;;;;;;8.63;4.03;;;;;;;;;;4990122;28;20077;-63
2022/10/08 08:46:45;;;;;;;6.55;4.22;;;;;;;;;;4990315;28;20034;-58
2022/10/08 08:49:18;;;;;;;8.57;4.80;;;;;;;;;;4990399;28;20026;-56
2022/10/08 08:51:44;;;;;;;8.02;4.38;;;;;;;;;;4990449;28;20105;-56
2022/10/08 08:54:10;;;;;;;12.68;4.35;;;;;;;;;;4990803;28;20019;-56
2022/10/08 08:56:36;;;;;;;8.52;4.32;;;;;;;;;;4990656;28;20026;-58
2022/10/08 08:59:12;;;;;;;11.30;4.32;;;;;;;;;;4990829;28;20398;-56
2022/10/08 09:01:43;;;;;;;8.75;3.80;;;;;;;;;;4990894;28;20120;-56
2022/10/08 09:04:15;;;;;;;9.48;4.60;;;;;;;;;;4991075;28;20117;-56
2022/10/08 09:06:42;;;;;;;11.40;4.13;;;;;;;;;;4991058;28;20127;-55
2022/10/08 09:09:17;;;;;;;7.93;4.78;;;;;;;;;;4990959;28;20048;-58
2022/10/08 09:11:43;;;;;;;8.60;4.53;;;;;;;;;;4990837;28;20027;-56
2022/10/08 09:14:13;;;;;;;7.38;4.47;;;;;;;;;;4990889;28;20125;-55
2022/10/08 09:16:40;;;;;;;7.65;4.88;;;;;;;;;;4994554;28;20076;-57
2022/10/08 09:19:06;;;;;;;7.25;3.90;;;;;;;;;;4994616;28;20128;-64
2022/10/08 09:21:33;;;;;;;8.50;4.05;;;;;;;;;;4994587;28;20030;-59
2022/10/08 09:23:59;;;;;;;8.95;3.90;;;;;;;;;;4994776;28;20033;-57
2022/10/08 09:26:29;;;;;;;8.48;3.97;;;;;;;;;;4994079;28;20019;-57
2022/10/08 09:28:59;;;;;;;9.05;4.18;;;;;;;;;;4994558;28;20077;-57
2022/10/08 09:31:27;;;;;;;11.98;4.20;;;;;;;;;;4994189;28;20482;-57
2022/10/08 09:34:01;;;;;;;7.03;4.20;;;;;;;;;;4993977;28;20073;-58
2022/10/08 09:36:42;;;;;;;9.45;4.10;;;;;;;;;;4994008;28;20031;-55
2022/10/08 09:39:20;;;;;;;7.85;4.32;;;;;;;;;;4993935;28;20060;-67
2022/10/08 09:41:47;;;;;;;7.43;4.15;;;;;;;;;;4994252;28;20038;-55
2022/10/08 09:44:17;;;;;;;7.88;3.75;;;;;;;;;;4993937;28;20049;-55
2022/10/08 09:46:43;;;;;;;6.57;4.22;;;;;;;;;;4994083;28;20049;-56
2022/10/08 09:49:20;;;;;;;6.68;3.78;;;;;;;;;;4994134;28;20041;-56
2022/10/08 09:51:46;;;;;;;7.25;4.30;;;;;;;;;;4993562;28;20113;-58
2022/10/08 09:54:16;;;;;;;9.07;4.50;;;;;;;;;;4994327;28;20104;-57
2022/10/08 09:56:42;;;;;;;9.75;4.38;;;;;;;;;;4993875;28;20127;-56
2022/10/08 09:59:16;;;;;;;7.88;4.57;;;;;;;;;;4993482;28;20038;-57
2022/10/08 10:01:45;;;;;;;11.90;4.82;;;;;;;;;;4994010;28;20027;-57
2022/10/08 10:04:18;;;;;;;8.25;4.53;;;;;;;;;;4993767;28;20030;-58
2022/10/08 10:06:47;;;;;;;10.32;4.53;;;;;;;;;;4993488;28;20038;-57
2022/10/08 10:09:31;;;;;;;10.77;4.82;;;;;;;;;;4993901;28;20109;-55
2022/10/08 10:12:09;;;;;;;10.48;4.57;;;;;;;;;;4993512;28;20030;-55
2022/10/08 10:14:46;;;;;;;7.95;4.05;;;;;;;;;;4993489;28;20034;-69
2022/10/08 10:17:21;;;;;;;8.27;4.45;;;;;;;;;;4993112;28;20089;-57
2022/10/08 10:19:51;;;;;;;8.65;4.82;;;;;;;;;;4993803;28;20066;-57
2022/10/08 10:22:21;;;;;;;8.68;4.47;;;;;;;;;;4993373;28;20088;-56
2022/10/08 10:24:50;;;;;;;7.63;4.10;;;;;;;;;;4993379;28;20084;-57
2022/10/08 10:27:23;;;;;;;10.50;4.93;;;;;;;;;;4992352;28;20049;-57
2022/10/08 10:30:04;;;;;;;8.30;4.32;;;;;;;;;;4993377;28;20756;-63
2022/10/08 10:32:34;;;;;;;7.43;4.57;;;;;;;;;;4993243;28;20549;-60
2022/10/08 10:35:19;;;;;;;9.60;4.70;;;;;;;;;;4993509;28;20556;-57
2022/10/08 10:37:51;;;;;;;9.57;4.70;;;;;;;;;;4975159;28;20394;-57
2022/10/08 10:40:31;;;;;;;12.32;4.40;;;;;;;;;;4993581;28;20014;-57
2022/10/08 10:43:06;;;;;;;8.52;4.32;;;;;;;;;;4992640;28;20030;-57
2022/10/08 10:45:35;;;;;;;9.77;4.90;;;;;;;;;;4992979;28;20042;-66
2022/10/08 10:48:02;;;;;;;9.20;4.38;;;;;;;;;;4975302;28;20038;-70
2022/10/08 10:50:51;;;;;;;8.57;4.22;;;;;;;;;;4973374;28;20026;-72
2022/10/08 10:53:56;;;;;;;9.63;4.65;;;;;;;;;;4875992;29;20057;-73
2022/10/08 10:56:23;;;;;;;9.05;4.30;;;;;;;;;;4820510;29;20535;-62
2022/10/08 10:59:07;;;;;;;6.88;4.72;;;;;;;;;;4820997;29;20407;-55
2022/10/08 11:01:59;;;;;;;7.38;4.00;;;;;;;;;;4821075;29;20066;-72
2022/10/08 11:04:25;;;;;;;7.05;4.28;;;;;;;;;;4800455;29;20405;-57
2022/10/08 11:06:51;;;;;;;10.40;4.70;;;;;;;;;;4820332;29;20046;-60
2022/10/08 11:09:26;;;;;;;6.05;4.40;;;;;;;;;;4820568;29;20505;-58
2022/10/08 11:12:08;;;;;;;8.68;4.70;;;;;;;;;;4820837;29;20074;-58
2022/10/08 11:14:46;;;;;;;9.07;4.80;;;;;;;;;;4820742;29;20042;-56
2022/10/08 11:17:42;;;;;;;8.45;4.65;;;;;;;;;;4820638;29;20529;-56
2022/10/08 11:20:08;;;;;;;8.57;4.40;;;;;;;;;;4766458;30;20048;-56
2022/10/08 11:22:43;;;;;;;10.80;4.57;;;;;;;;;;4766499;30;20143;-56
2022/10/08 11:25:21;;;;;;;9.48;4.45;;;;;;;;;;4766570;30;20044;-57
2022/10/08 11:28:06;;;;;;;8.98;4.47;;;;;;;;;;4808441;29;20064;-57
2022/10/08 11:30:46;;;;;;;8.93;4.38;;;;;;;;;;4853539;29;20052;-58
2022/10/08 11:33:13;;;;;;;8.10;4.65;;;;;;;;;;4875724;29;20150;-69
2022/10/08 11:35:46;;;;;;;7.25;4.18;;;;;;;;;;4859808;29;20052;-55
2022/10/08 11:38:24;;;;;;;8.13;4.25;;;;;;;;;;4874373;29;20041;-55
2022/10/08 11:41:10;;;;;;;11.20;4.80;;;;;;;;;;4875287;29;20041;-59
2022/10/08 11:43:40;;;;;;;7.63;4.43;;;;;;;;;;4874858;29;20049;-72
2022/10/08 11:46:21;;;;;;;12.02;4.65;;;;;;;;;;4875626;29;20068;-64
2022/10/08 11:48:48;;;;;;;10.45;5.20;;;;;;;;;;4875553;29;20039;-67
2022/10/08 11:51:20;;;;;;;12.30;5.20;;;;;;;;;;4875117;29;20084;-68
2022/10/08 11:54:04;;;;;;;8.73;4.93;;;;;;;;;;4874845;29;20064;-75
2022/10/08 11:56:31;;;;;;;7.75;4.53;;;;;;;;;;4913112;29;20400;-57
2022/10/08 11:58:59;;;;;;;6.22;4.57;;;;;;;;;;4952944;29;20043;-65
2022/10/08 12:01:25;;;;;;;9.32;4.43;;;;;;;;;;4953109;29;20081;-56
2022/10/08 12:04:10;;;;;;;8.88;4.43;;;;;;;;;;4952844;29;20042;-55
2022/10/08 12:06:36;;;;;;;9.18;5.05;;;;;;;;;;4952964;29;20082;-56
2022/10/08 12:09:04;;;;;;;8.18;4.60;;;;;;;;;;4952978;29;20027;-66
2022/10/08 12:11:39;;;;;;;12.13;5.13;;;;;;;;;;4952757;29;20102;-74
2022/10/08 12:14:11;;;;;;;8.32;5.05;;;;;;;;;;4952884;29;20042;-57
2022/10/08 12:16:37;;;;;;;;;;;;;;;;;;4952724;29;20045;-58
2022/10/08 12:19:06;;;;;;;8.02;4.85;;;;;;;;;;4952540;29;20361;-56
2022/10/08 12:21:32;;;;;;;8.90;5.03;;;;;;;;;;4952468;29;20023;-57
2022/10/08 12:23:58;;;;;;;8.18;4.65;;;;;;;;;;4952667;29;20023;-56
2022/10/08 12:26:24;;;;;;;8.93;4.53;;;;;;;;;;4952709;29;20106;-61
2022/10/08 12:28:50;;;;;;;8.05;4.47;;;;;;;;;;4952462;29;20031;-56
2022/10/08 12:31:18;;;;;;;9.93;4.90;;;;;;;;;;4952647;29;20055;-56
2022/10/08 12:33:54;;;;;;;11.23;4.53;;;;;;;;;;4952592;29;20023;-56
2022/10/08 12:36:27;;;;;;;10.57;5.03;;;;;;;;;;4952790;29;20041;-56
2022/10/08 12:38:56;;;;;;;7.25;4.68;;;;;;;;;;4952161;29;20070;-56
2022/10/08 12:41:24;;;;;;;8.18;4.43;;;;;;;;;;4952113;29;20024;-56
2022/10/08 12:43:57;;;;;;;7.75;4.13;;;;;;;;;;4952281;28;20047;-62
2022/10/08 12:46:40;;;;;;;6.82;4.05;;;;;;;;;;4952756;29;20039;-56
2022/10/08 12:49:21;;;;;;;7.45;4.07;;;;;;;;;;4952595;28;20083;-56
2022/10/08 12:51:52;;;;;;;10.02;5.18;;;;;;;;;;4956022;29;20055;-57
2022/10/08 12:54:19;;;;;;;12.85;4.60;;;;;;;;;;4956265;29;20146;-64
2022/10/08 12:56:46;;;;;;;11.02;4.55;;;;;;;;;;4956217;29;20494;-57
2022/10/08 12:59:13;;;;;;;8.25;4.35;;;;;;;;;;4956061;29;20431;-61
2022/10/08 13:01:40;;;;;;;8.18;5.15;;;;;;;;;;4956224;29;20129;-56
2022/10/08 13:04:20;;;;;;;8.60;4.85;;;;;;;;;;4956328;28;20031;-63
2022/10/08 13:06:50;;;;;;;10.35;5.00;;;;;;;;;;4978497;28;20018;-76
2022/10/08 13:09:24;;;;;;;8.55;4.65;;;;;;;;;;4994328;28;20057;-73
2022/10/08 13:11:50;;;;;;;10.55;4.80;;;;;;;;;;4993808;28;20034;-56
2022/10/08 13:14:28;;;;;;;10.85;4.95;;;;;;;;;;4986634;28;20031;-56
2022/10/08 13:16:55;;;;;;;7.28;4.90;;;;;;;;;;4994405;28;20058;-56
2022/10/08 13:19:31;;;;;;;10.05;4.90;;;;;;;;;;4965524;28;20912;-71
2022/10/08 13:21:59;;;;;;;8.50;5.03;;;;;;;;;;4955478;29;20407;-67
2022/10/08 13:24:25;;;;;;;11.13;5.13;;;;;;;;;;4956111;29;20027;-55
2022/10/08 13:26:52;;;;;;;14.18;6.35;;;;;;;;;;4956113;29;20027;-57
2022/10/08 13:29:21;;;;;;;10.30;4.97;;;;;;;;;;4956017;29;20490;-65
2022/10/08 13:32:14;;;;;;;12.30;7.18;;;;;;;;;;4960682;28;20038;-57
2022/10/08 13:34:40;;;;;;;9.15;5.22;;;;;;;;;;4990141;28;20031;-55
2022/10/08 13:37:08;;;;;;;11.82;5.50;;;;;;;;;;4993907;28;20037;-61
2022/10/08 13:39:37;;;;;;;16.30;9.43;;;;;;;;;;4994406;28;20043;-54
2022/10/08 13:42:05;;;;;;;14.35;7.05;;;;;;;;;;4994017;28;20384;-60
2022/10/08 13:44:31;;;;;;;16.88;7.45;;;;;;;;;;4994237;28;20050;-73
2022/10/08 13:46:58;;;;;;;11.38;6.78;;;;;;;;;;4994054;28;20034;-55
2022/10/08 13:49:27;;;;;;;14.15;6.82;;;;;;;;;;4994133;28;20027;-55
2022/10/08 13:51:53;;;;;;;14.00;8.35;;;;;;;;;;4993467;28;20022;-55
2022/10/08 13:54:21;;;;;;;10.68;6.53;;;;;;;;;;4993852;28;20058;-70
2022/10/08 13:56:48;;;;;;;12.30;6.97;;;;;;;;;;4993799;28;20034;-55
2022/10/08 13:59:14;;;;;;;14.32;6.90;;;;;;;;;;4993789;28;20034;-55
2022/10/08 14:01:40;;;;;;;12.55;6.70;;;;;;;;;;4993453;28;20473;-71
2022/10/08 14:04:06;;;;;;;13.43;6.20;;;;;;;;;;4993861;28;20037;-55
2022/10/08 14:06:32;;;;;;;11.93;6.13;;;;;;;;;;4993195;28;20105;-63
2022/10/08 14:08:59;;;;;;;8.45;5.60;;;;;;;;;;4976133;28;20414;-56
2022/10/08 14:11:25;;;;;;;9.45;4.78;;;;;;;;;;4993613;28;20436;-56
2022/10/08 14:13:52;;;;;;;12.57;5.47;;;;;;;;;;4993743;28;20030;-72
2022/10/08 14:16:18;;;;;;;8.15;5.03;;;;;;;;;;4993626;28;20057;-61
2022/10/08 14:18:44;;;;;;;7.63;4.78;;;;;;;;;;4992893;28;20121;-69
2022/10/08 14:21:14;;;;;;;11.85;4.82;;;;;;;;;;4993801;28;20117;-63
2022/10/08 14:23:40;;;;;;;7.72;4.90;;;;;;;;;;4993225;28;20026;-56
2022/10/08 14:26:06;;;;;;;10.13;4.95;;;;;;;;;;4993066;28;20057;-56
2022/10/08 14:28:32;;;;;;;9.75;5.05;;;;;;;;;;4992860;28;20022;-76
2022/10/08 14:30:58;;;;;;;8.75;5.47;;;;;;;;;;4993269;28;20394;-74
2022/10/08 14:33:24;;;;;;;9.63;4.75;;;;;;;;;;4993529;28;20481;-55
2022/10/08 14:35:52;;;;;;;7.68;4.43;;;;;;;;;;4992941;28;20522;-72
2022/10/08 14:38:18;;;;;;;6.72;4.47;;;;;;;;;;4992926;28;20057;-74
2022/10/08 14:40:44;;;;;;;9.10;4.57;;;;;;;;;;4992929;28;20478;-68
2022/10/08 14:43:10;;;;;;;6.88;4.35;;;;;;;;;;4992836;28;20054;-55
2022/10/08 14:45:36;;;;;;;7.50;4.53;;;;;;;;;;4993159;28;20109;-57
2022/10/08 14:48:02;;;;;;;7.15;4.47;;;;;;;;;;4992886;28;20034;-70
2022/10/08 14:50:28;;;;;;;10.05;5.07;;;;;;;;;;4992767;28;20026;-56